sensor_id;sensor_type;location;lat;lon;timestamp;P1;durP1;ratioP1;P2;durP2;ratioP2
73938;SDS011;62291;47.554;8.504;2022-08-21T00:01:52;433.00;;;25.02;;
73938;SDS011;62291;47.554;8.504;2022-08-21T00:04:17;80.10;;;11.48;;
73938;SDS011;62291;47.554;8.504;2022-08-21T00:06:43;248.40;;;19.20;;
73938;SDS011;62291;47.554;8.504;2022-08-21T00:09:09;632.28;;;29.48;;
73938;SDS011;62291;47.554;8.504;2022-08-21T00:11:36;454.77;;;25.35;;
73938;SDS011;62291;47.554;8.504;2022-08-21T00:14:04;292.58;;;19.73;;
73938;SDS011;62291;47.554;8.504;2022-08-21T00:16:31;373.73;;;21.65;;
73938;SDS011;62291;47.554;8.504;2022-08-21T00:18:57;303.27;;;17.55;;
73938;SDS011;62291;47.554;8.504;2022-08-21T00:21:23;394.50;;;22.77;;
73938;SDS011;62291;47.554;8.504;2022-08-21T00:23:50;275.20;;;21.00;;
73938;SDS011;62291;47.554;8.504;2022-08-21T00:26:16;292.45;;;19.05;;
73938;SDS011;62291;47.554;8.504;2022-08-21T00:28:42;389.65;;;22.02;;
73938;SDS011;62291;47.554;8.504;2022-08-21T00:31:10;267.45;;;17.50;;
73938;SDS011;62291;47.554;8.504;2022-08-21T00:33:36;246.13;;;18.80;;
73938;SDS011;62291;47.554;8.504;2022-08-21T00:36:02;224.15;;;19.38;;
73938;SDS011;62291;47.554;8.504;2022-08-21T00:38:29;173.25;;;18.67;;
73938;SDS011;62291;47.554;8.504;2022-08-21T00:40:59;207.48;;;21.38;;
73938;SDS011;62291;47.554;8.504;2022-08-21T00:45:54;105.07;;;16.70;;
73938;SDS011;62291;47.554;8.504;2022-08-21T00:48:20;172.60;;;20.55;;
73938;SDS011;62291;47.554;8.504;2022-08-21T00:50:52;192.00;;;16.60;;
73938;SDS011;62291;47.554;8.504;2022-08-21T00:53:22;285.70;;;23.48;;
73938;SDS011;62291;47.554;8.504;2022-08-21T00:55:49;321.70;;;25.65;;
73938;SDS011;62291;47.554;8.504;2022-08-21T00:58:15;416.20;;;29.77;;
73938;SDS011;62291;47.554;8.504;2022-08-21T01:00:43;427.02;;;28.80;;
73938;SDS011;62291;47.554;8.504;2022-08-21T01:03:16;187.73;;;16.15;;
73938;SDS011;62291;47.554;8.504;2022-08-21T01:05:44;142.73;;;15.45;;
73938;SDS011;62291;47.554;8.504;2022-08-21T01:08:11;182.13;;;16.42;;
73938;SDS011;62291;47.554;8.504;2022-08-21T01:10:38;137.60;;;17.25;;
73938;SDS011;62291;47.554;8.504;2022-08-21T01:13:07;399.77;;;29.40;;
73938;SDS011;62291;47.554;8.504;2022-08-21T01:15:37;257.85;;;20.35;;
73938;SDS011;62291;47.554;8.504;2022-08-21T01:18:08;47.35;;;11.10;;
73938;SDS011;62291;47.554;8.504;2022-08-21T01:20:36;93.97;;;14.35;;
73938;SDS011;62291;47.554;8.504;2022-08-21T01:23:04;22.30;;;10.73;;
73938;SDS011;62291;47.554;8.504;2022-08-21T01:25:31;37.03;;;11.82;;
73938;SDS011;62291;47.554;8.504;2022-08-21T01:27:59;131.65;;;16.17;;
73938;SDS011;62291;47.554;8.504;2022-08-21T01:30:31;151.77;;;16.88;;
73938;SDS011;62291;47.554;8.504;2022-08-21T01:33:01;440.95;;;27.25;;
73938;SDS011;62291;47.554;8.504;2022-08-21T01:35:27;263.63;;;19.08;;
73938;SDS011;62291;47.554;8.504;2022-08-21T01:37:53;275.85;;;17.35;;
73938;SDS011;62291;47.554;8.504;2022-08-21T01:40:19;372.80;;;24.50;;
73938;SDS011;62291;47.554;8.504;2022-08-21T01:42:45;244.23;;;22.88;;
73938;SDS011;62291;47.554;8.504;2022-08-21T01:45:11;264.00;;;22.35;;
73938;SDS011;62291;47.554;8.504;2022-08-21T01:47:38;296.85;;;19.58;;
73938;SDS011;62291;47.554;8.504;2022-08-21T01:50:05;740.30;;;37.03;;
73938;SDS011;62291;47.554;8.504;2022-08-21T01:52:33;195.82;;;20.42;;
73938;SDS011;62291;47.554;8.504;2022-08-21T01:54:58;274.95;;;22.52;;
73938;SDS011;62291;47.554;8.504;2022-08-21T01:57:24;178.60;;;20.50;;
73938;SDS011;62291;47.554;8.504;2022-08-21T01:59:51;102.68;;;16.45;;
73938;SDS011;62291;47.554;8.504;2022-08-21T02:02:16;229.80;;;17.75;;
73938;SDS011;62291;47.554;8.504;2022-08-21T02:04:42;100.13;;;12.98;;
73938;SDS011;62291;47.554;8.504;2022-08-21T02:07:07;323.92;;;18.60;;
73938;SDS011;62291;47.554;8.504;2022-08-21T02:09:34;174.77;;;17.20;;
73938;SDS011;62291;47.554;8.504;2022-08-21T02:11:59;337.23;;;22.45;;
73938;SDS011;62291;47.554;8.504;2022-08-21T02:14:25;463.67;;;24.83;;
73938;SDS011;62291;47.554;8.504;2022-08-21T02:16:51;383.30;;;23.20;;
73938;SDS011;62291;47.554;8.504;2022-08-21T02:19:16;344.58;;;22.98;;
73938;SDS011;62291;47.554;8.504;2022-08-21T02:21:42;369.70;;;21.55;;
73938;SDS011;62291;47.554;8.504;2022-08-21T02:24:08;321.05;;;18.23;;
73938;SDS011;62291;47.554;8.504;2022-08-21T02:26:36;400.70;;;25.38;;
73938;SDS011;62291;47.554;8.504;2022-08-21T02:29:02;411.70;;;24.27;;
73938;SDS011;62291;47.554;8.504;2022-08-21T02:31:29;585.60;;;29.42;;
73938;SDS011;62291;47.554;8.504;2022-08-21T02:33:56;568.60;;;27.48;;
73938;SDS011;62291;47.554;8.504;2022-08-21T02:36:22;703.88;;;33.22;;
73938;SDS011;62291;47.554;8.504;2022-08-21T02:38:47;366.33;;;19.88;;
73938;SDS011;62291;47.554;8.504;2022-08-21T02:41:15;436.05;;;24.50;;
73938;SDS011;62291;47.554;8.504;2022-08-21T02:43:44;244.63;;;19.35;;
73938;SDS011;62291;47.554;8.504;2022-08-21T02:46:11;227.65;;;18.77;;
73938;SDS011;62291;47.554;8.504;2022-08-21T02:48:39;181.20;;;15.85;;
73938;SDS011;62291;47.554;8.504;2022-08-21T02:51:09;155.35;;;17.45;;
73938;SDS011;62291;47.554;8.504;2022-08-21T02:53:37;157.27;;;13.77;;
73938;SDS011;62291;47.554;8.504;2022-08-21T02:56:06;258.52;;;20.20;;
73938;SDS011;62291;47.554;8.504;2022-08-21T02:58:34;104.05;;;15.18;;
73938;SDS011;62291;47.554;8.504;2022-08-21T03:01:03;330.20;;;20.63;;
73938;SDS011;62291;47.554;8.504;2022-08-21T03:03:29;305.23;;;22.20;;
73938;SDS011;62291;47.554;8.504;2022-08-21T03:05:56;231.00;;;16.83;;
73938;SDS011;62291;47.554;8.504;2022-08-21T03:08:22;187.68;;;17.65;;
73938;SDS011;62291;47.554;8.504;2022-08-21T03:10:50;440.77;;;24.92;;
73938;SDS011;62291;47.554;8.504;2022-08-21T03:13:18;390.98;;;27.27;;
73938;SDS011;62291;47.554;8.504;2022-08-21T03:15:45;617.28;;;36.40;;
73938;SDS011;62291;47.554;8.504;2022-08-21T03:18:11;282.63;;;22.48;;
73938;SDS011;62291;47.554;8.504;2022-08-21T03:20:39;237.80;;;22.77;;
73938;SDS011;62291;47.554;8.504;2022-08-21T03:23:06;337.45;;;23.98;;
73938;SDS011;62291;47.554;8.504;2022-08-21T03:25:33;70.93;;;13.15;;
73938;SDS011;62291;47.554;8.504;2022-08-21T03:27:59;143.35;;;17.23;;
73938;SDS011;62291;47.554;8.504;2022-08-21T03:30:27;322.15;;;24.83;;
73938;SDS011;62291;47.554;8.504;2022-08-21T03:32:53;238.82;;;19.73;;
73938;SDS011;62291;47.554;8.504;2022-08-21T03:35:19;113.15;;;15.40;;
73938;SDS011;62291;47.554;8.504;2022-08-21T03:37:45;228.70;;;21.65;;
73938;SDS011;62291;47.554;8.504;2022-08-21T03:40:13;142.25;;;18.90;;
73938;SDS011;62291;47.554;8.504;2022-08-21T03:42:40;405.60;;;27.30;;
73938;SDS011;62291;47.554;8.504;2022-08-21T03:45:06;90.28;;;14.30;;
73938;SDS011;62291;47.554;8.504;2022-08-21T03:47:33;248.57;;;23.00;;
73938;SDS011;62291;47.554;8.504;2022-08-21T03:49:58;265.92;;;21.20;;
73938;SDS011;62291;47.554;8.504;2022-08-21T03:52:25;84.70;;;14.30;;
73938;SDS011;62291;47.554;8.504;2022-08-21T03:54:50;112.38;;;18.50;;
73938;SDS011;62291;47.554;8.504;2022-08-21T03:57:16;85.05;;;16.75;;
73938;SDS011;62291;47.554;8.504;2022-08-21T03:59:43;86.35;;;18.20;;
73938;SDS011;62291;47.554;8.504;2022-08-21T04:02:09;80.45;;;16.42;;
73938;SDS011;62291;47.554;8.504;2022-08-21T04:04:35;134.82;;;19.10;;
73938;SDS011;62291;47.554;8.504;2022-08-21T04:07:02;150.98;;;19.83;;
73938;SDS011;62291;47.554;8.504;2022-08-21T04:09:28;300.45;;;22.50;;
73938;SDS011;62291;47.554;8.504;2022-08-21T04:11:55;155.68;;;19.52;;
73938;SDS011;62291;47.554;8.504;2022-08-21T04:14:21;375.25;;;26.38;;
73938;SDS011;62291;47.554;8.504;2022-08-21T04:16:47;84.10;;;13.43;;
73938;SDS011;62291;47.554;8.504;2022-08-21T04:19:13;144.02;;;17.50;;
73938;SDS011;62291;47.554;8.504;2022-08-21T04:21:40;155.65;;;17.15;;
73938;SDS011;62291;47.554;8.504;2022-08-21T04:24:06;221.23;;;20.50;;
73938;SDS011;62291;47.554;8.504;2022-08-21T04:26:34;248.48;;;22.52;;
73938;SDS011;62291;47.554;8.504;2022-08-21T04:29:00;138.15;;;19.38;;
73938;SDS011;62291;47.554;8.504;2022-08-21T04:31:27;191.80;;;20.30;;
73938;SDS011;62291;47.554;8.504;2022-08-21T04:33:53;66.53;;;16.27;;
73938;SDS011;62291;47.554;8.504;2022-08-21T04:36:22;61.38;;;15.73;;
73938;SDS011;62291;47.554;8.504;2022-08-21T04:38:48;60.83;;;14.60;;
73938;SDS011;62291;47.554;8.504;2022-08-21T04:41:14;45.47;;;15.05;;
73938;SDS011;62291;47.554;8.504;2022-08-21T04:43:39;54.60;;;16.58;;
73938;SDS011;62291;47.554;8.504;2022-08-21T04:46:06;32.78;;;12.93;;
73938;SDS011;62291;47.554;8.504;2022-08-21T04:48:32;62.55;;;15.50;;
73938;SDS011;62291;47.554;8.504;2022-08-21T04:53:49;22.02;;;10.85;;
73938;SDS011;62291;47.554;8.504;2022-08-21T04:56:31;26.02;;;10.40;;
73938;SDS011;62291;47.554;8.504;2022-08-21T04:59:02;22.08;;;9.88;;
73938;SDS011;62291;47.554;8.504;2022-08-21T05:01:32;15.50;;;8.90;;
73938;SDS011;62291;47.554;8.504;2022-08-21T05:04:02;24.00;;;9.70;;
73938;SDS011;62291;47.554;8.504;2022-08-21T05:06:30;38.70;;;12.60;;
73938;SDS011;62291;47.554;8.504;2022-08-21T05:08:59;50.83;;;12.93;;
73938;SDS011;62291;47.554;8.504;2022-08-21T05:11:26;52.17;;;12.15;;
73938;SDS011;62291;47.554;8.504;2022-08-21T05:13:53;18.92;;;9.43;;
73938;SDS011;62291;47.554;8.504;2022-08-21T05:16:18;16.15;;;9.35;;
73938;SDS011;62291;47.554;8.504;2022-08-21T05:18:44;12.75;;;8.00;;
73938;SDS011;62291;47.554;8.504;2022-08-21T05:21:10;12.45;;;8.05;;
73938;SDS011;62291;47.554;8.504;2022-08-21T05:23:35;12.27;;;7.32;;
73938;SDS011;62291;47.554;8.504;2022-08-21T05:26:02;9.82;;;6.80;;
73938;SDS011;62291;47.554;8.504;2022-08-21T05:28:29;10.95;;;6.85;;
73938;SDS011;62291;47.554;8.504;2022-08-21T05:30:55;7.47;;;5.13;;
73938;SDS011;62291;47.554;8.504;2022-08-21T05:33:21;8.20;;;4.80;;
73938;SDS011;62291;47.554;8.504;2022-08-21T05:35:49;6.25;;;5.03;;
73938;SDS011;62291;47.554;8.504;2022-08-21T05:38:16;7.47;;;5.10;;
73938;SDS011;62291;47.554;8.504;2022-08-21T05:40:42;6.07;;;4.70;;
73938;SDS011;62291;47.554;8.504;2022-08-21T05:43:08;5.32;;;4.07;;
73938;SDS011;62291;47.554;8.504;2022-08-21T05:45:34;7.18;;;4.78;;
73938;SDS011;62291;47.554;8.504;2022-08-21T05:48:06;6.25;;;4.60;;
73938;SDS011;62291;47.554;8.504;2022-08-21T05:50:33;5.60;;;4.13;;
73938;SDS011;62291;47.554;8.504;2022-08-21T05:53:00;3.83;;;3.30;;
73938;SDS011;62291;47.554;8.504;2022-08-21T05:55:26;3.83;;;3.42;;
73938;SDS011;62291;47.554;8.504;2022-08-21T05:57:51;4.53;;;3.70;;
73938;SDS011;62291;47.554;8.504;2022-08-21T06:00:17;3.88;;;3.47;;
73938;SDS011;62291;47.554;8.504;2022-08-21T06:02:43;4.18;;;3.40;;
73938;SDS011;62291;47.554;8.504;2022-08-21T06:05:09;4.15;;;3.75;;
73938;SDS011;62291;47.554;8.504;2022-08-21T06:07:34;5.95;;;4.15;;
73938;SDS011;62291;47.554;8.504;2022-08-21T06:10:00;5.78;;;4.43;;
73938;SDS011;62291;47.554;8.504;2022-08-21T06:12:26;6.78;;;4.43;;
73938;SDS011;62291;47.554;8.504;2022-08-21T06:14:52;4.93;;;3.80;;
73938;SDS011;62291;47.554;8.504;2022-08-21T06:17:18;12.05;;;5.35;;
73938;SDS011;62291;47.554;8.504;2022-08-21T06:19:43;4.63;;;4.13;;
73938;SDS011;62291;47.554;8.504;2022-08-21T06:22:09;9.57;;;5.63;;
73938;SDS011;62291;47.554;8.504;2022-08-21T06:24:35;7.70;;;6.18;;
73938;SDS011;62291;47.554;8.504;2022-08-21T06:27:07;6.80;;;4.85;;
73938;SDS011;62291;47.554;8.504;2022-08-21T06:29:34;5.50;;;4.18;;
73938;SDS011;62291;47.554;8.504;2022-08-21T06:32:00;5.38;;;4.53;;
73938;SDS011;62291;47.554;8.504;2022-08-21T06:34:27;6.65;;;4.88;;
73938;SDS011;62291;47.554;8.504;2022-08-21T06:36:53;8.48;;;5.05;;
73938;SDS011;62291;47.554;8.504;2022-08-21T06:39:19;4.57;;;4.03;;
73938;SDS011;62291;47.554;8.504;2022-08-21T06:41:44;4.90;;;4.10;;
73938;SDS011;62291;47.554;8.504;2022-08-21T06:44:10;5.28;;;3.92;;
73938;SDS011;62291;47.554;8.504;2022-08-21T06:46:36;5.15;;;4.28;;
73938;SDS011;62291;47.554;8.504;2022-08-21T06:49:02;5.13;;;4.03;;
73938;SDS011;62291;47.554;8.504;2022-08-21T06:51:28;5.38;;;4.10;;
73938;SDS011;62291;47.554;8.504;2022-08-21T06:53:54;4.43;;;3.80;;
73938;SDS011;62291;47.554;8.504;2022-08-21T06:56:20;4.82;;;3.80;;
73938;SDS011;62291;47.554;8.504;2022-08-21T06:58:46;4.88;;;4.00;;
73938;SDS011;62291;47.554;8.504;2022-08-21T07:01:12;7.80;;;6.80;;
73938;SDS011;62291;47.554;8.504;2022-08-21T07:03:38;4.85;;;3.85;;
73938;SDS011;62291;47.554;8.504;2022-08-21T07:06:06;5.32;;;4.35;;
73938;SDS011;62291;47.554;8.504;2022-08-21T07:08:33;3.75;;;3.20;;
73938;SDS011;62291;47.554;8.504;2022-08-21T07:11:00;3.97;;;3.58;;
73938;SDS011;62291;47.554;8.504;2022-08-21T07:13:29;3.65;;;3.20;;
73938;SDS011;62291;47.554;8.504;2022-08-21T07:15:57;4.55;;;3.53;;
73938;SDS011;62291;47.554;8.504;2022-08-21T07:18:23;4.35;;;3.85;;
73938;SDS011;62291;47.554;8.504;2022-08-21T07:20:49;4.03;;;3.63;;
73938;SDS011;62291;47.554;8.504;2022-08-21T07:23:21;4.10;;;3.70;;
73938;SDS011;62291;47.554;8.504;2022-08-21T07:25:51;4.10;;;3.70;;
73938;SDS011;62291;47.554;8.504;2022-08-21T07:28:17;3.67;;;3.28;;
73938;SDS011;62291;47.554;8.504;2022-08-21T07:30:43;4.25;;;3.60;;
73938;SDS011;62291;47.554;8.504;2022-08-21T07:33:09;5.22;;;4.22;;
73938;SDS011;62291;47.554;8.504;2022-08-21T07:35:34;5.10;;;4.60;;
73938;SDS011;62291;47.554;8.504;2022-08-21T07:38:00;3.60;;;3.30;;
73938;SDS011;62291;47.554;8.504;2022-08-21T07:40:26;4.30;;;3.85;;
73938;SDS011;62291;47.554;8.504;2022-08-21T07:42:51;4.30;;;3.60;;
73938;SDS011;62291;47.554;8.504;2022-08-21T07:45:21;3.88;;;3.47;;
73938;SDS011;62291;47.554;8.504;2022-08-21T07:47:49;4.38;;;3.42;;
73938;SDS011;62291;47.554;8.504;2022-08-21T07:50:15;4.20;;;3.80;;
73938;SDS011;62291;47.554;8.504;2022-08-21T07:52:41;4.22;;;3.83;;
73938;SDS011;62291;47.554;8.504;2022-08-21T07:55:08;5.65;;;4.55;;
73938;SDS011;62291;47.554;8.504;2022-08-21T07:57:35;4.68;;;4.18;;
73938;SDS011;62291;47.554;8.504;2022-08-21T08:00:03;6.03;;;4.93;;
73938;SDS011;62291;47.554;8.504;2022-08-21T08:02:30;4.53;;;4.13;;
73938;SDS011;62291;47.554;8.504;2022-08-21T08:04:59;6.20;;;5.60;;
73938;SDS011;62291;47.554;8.504;2022-08-21T08:07:29;6.20;;;5.60;;
73938;SDS011;62291;47.554;8.504;2022-08-21T08:09:55;6.00;;;5.40;;
73938;SDS011;62291;47.554;8.504;2022-08-21T08:12:21;6.07;;;5.47;;
73938;SDS011;62291;47.554;8.504;2022-08-21T08:14:47;5.18;;;4.68;;
73938;SDS011;62291;47.554;8.504;2022-08-21T08:17:12;5.90;;;5.30;;
73938;SDS011;62291;47.554;8.504;2022-08-21T08:19:38;6.80;;;6.10;;
73938;SDS011;62291;47.554;8.504;2022-08-21T08:22:25;6.15;;;5.55;;
73938;SDS011;62291;47.554;8.504;2022-08-21T08:24:51;6.85;;;6.15;;
73938;SDS011;62291;47.554;8.504;2022-08-21T08:27:17;7.80;;;7.05;;
73938;SDS011;62291;47.554;8.504;2022-08-21T08:29:44;6.95;;;6.25;;
73938;SDS011;62291;47.554;8.504;2022-08-21T08:32:10;6.93;;;6.22;;
73938;SDS011;62291;47.554;8.504;2022-08-21T08:34:36;8.90;;;6.97;;
73938;SDS011;62291;47.554;8.504;2022-08-21T08:37:04;8.68;;;7.20;;
73938;SDS011;62291;47.554;8.504;2022-08-21T08:39:31;7.90;;;7.10;;
73938;SDS011;62291;47.554;8.504;2022-08-21T08:44:41;7.68;;;6.88;;
73938;SDS011;62291;47.554;8.504;2022-08-21T08:47:13;6.53;;;5.88;;
73938;SDS011;62291;47.554;8.504;2022-08-21T08:49:49;6.03;;;5.43;;
73938;SDS011;62291;47.554;8.504;2022-08-21T08:52:22;6.78;;;5.75;;
73938;SDS011;62291;47.554;8.504;2022-08-21T08:57:30;6.63;;;5.63;;
73938;SDS011;62291;47.554;8.504;2022-08-21T08:59:58;5.55;;;5.05;;
73938;SDS011;62291;47.554;8.504;2022-08-21T09:02:26;6.22;;;5.50;;
73938;SDS011;62291;47.554;8.504;2022-08-21T09:04:54;7.00;;;5.65;;
73938;SDS011;62291;47.554;8.504;2022-08-21T09:12:39;5.85;;;5.25;;
73938;SDS011;62291;47.554;8.504;2022-08-21T09:18:02;5.40;;;4.90;;
73938;SDS011;62291;47.554;8.504;2022-08-21T09:26:31;6.15;;;4.82;;
73938;SDS011;62291;47.554;8.504;2022-08-21T09:29:05;4.70;;;4.30;;
73938;SDS011;62291;47.554;8.504;2022-08-21T09:31:35;5.53;;;4.90;;
73938;SDS011;62291;47.554;8.504;2022-08-21T09:34:06;5.30;;;4.80;;
73938;SDS011;62291;47.554;8.504;2022-08-21T09:36:47;4.88;;;4.47;;
73938;SDS011;62291;47.554;8.504;2022-08-21T09:39:23;6.50;;;4.82;;
73938;SDS011;62291;47.554;8.504;2022-08-21T09:41:55;4.53;;;4.13;;
73938;SDS011;62291;47.554;8.504;2022-08-21T09:44:29;5.32;;;4.80;;
73938;SDS011;62291;47.554;8.504;2022-08-21T09:46:57;5.18;;;4.68;;
73938;SDS011;62291;47.554;8.504;2022-08-21T09:49:32;4.70;;;4.28;;
73938;SDS011;62291;47.554;8.504;2022-08-21T09:52:00;5.70;;;3.72;;
73938;SDS011;62291;47.554;8.504;2022-08-21T09:54:32;4.93;;;4.45;;
73938;SDS011;62291;47.554;8.504;2022-08-21T09:59:51;3.50;;;3.20;;
73938;SDS011;62291;47.554;8.504;2022-08-21T10:02:28;5.25;;;4.20;;
73938;SDS011;62291;47.554;8.504;2022-08-21T10:04:57;5.78;;;3.80;;
73938;SDS011;62291;47.554;8.504;2022-08-21T10:07:26;3.95;;;3.58;;
73938;SDS011;62291;47.554;8.504;2022-08-21T10:17:50;4.93;;;3.08;;
73938;SDS011;62291;47.554;8.504;2022-08-21T10:20:25;4.80;;;2.83;;
73938;SDS011;62291;47.554;8.504;2022-08-21T10:28:34;3.70;;;3.35;;
73938;SDS011;62291;47.554;8.504;2022-08-21T10:31:37;2.40;;;2.20;;
73938;SDS011;62291;47.554;8.504;2022-08-21T10:37:17;3.38;;;2.50;;
73938;SDS011;62291;47.554;8.504;2022-08-21T10:45:29;3.65;;;2.40;;
73938;SDS011;62291;47.554;8.504;2022-08-21T10:48:22;2.97;;;2.28;;
73938;SDS011;62291;47.554;8.504;2022-08-21T10:51:15;3.60;;;1.90;;
73938;SDS011;62291;47.554;8.504;2022-08-21T10:56:42;5.88;;;2.60;;
73938;SDS011;62291;47.554;8.504;2022-08-21T11:05:01;3.10;;;1.98;;
73938;SDS011;62291;47.554;8.504;2022-08-21T11:10:08;3.40;;;1.60;;
73938;SDS011;62291;47.554;8.504;2022-08-21T11:12:44;6.13;;;1.63;;
73938;SDS011;62291;47.554;8.504;2022-08-21T11:15:24;6.00;;;1.38;;
73938;SDS011;62291;47.554;8.504;2022-08-21T11:18:04;4.68;;;1.70;;
73938;SDS011;62291;47.554;8.504;2022-08-21T11:20:40;4.47;;;1.90;;
73938;SDS011;62291;47.554;8.504;2022-08-21T11:23:25;4.43;;;1.40;;
73938;SDS011;62291;47.554;8.504;2022-08-21T11:25:58;3.17;;;1.50;;
73938;SDS011;62291;47.554;8.504;2022-08-21T11:28:31;3.03;;;1.17;;
73938;SDS011;62291;47.554;8.504;2022-08-21T11:33:57;3.78;;;1.50;;
73938;SDS011;62291;47.554;8.504;2022-08-21T11:36:53;3.22;;;1.15;;
73938;SDS011;62291;47.554;8.504;2022-08-21T11:39:47;2.45;;;1.08;;
73938;SDS011;62291;47.554;8.504;2022-08-21T11:42:30;3.33;;;0.90;;
73938;SDS011;62291;47.554;8.504;2022-08-21T11:53:08;2.80;;;1.10;;
73938;SDS011;62291;47.554;8.504;2022-08-21T12:01:07;1.38;;;0.70;;
73938;SDS011;62291;47.554;8.504;2022-08-21T12:03:39;2.92;;;1.13;;
73938;SDS011;62291;47.554;8.504;2022-08-21T12:06:26;4.00;;;1.20;;
73938;SDS011;62291;47.554;8.504;2022-08-21T12:08:58;1.92;;;1.35;;
73938;SDS011;62291;47.554;8.504;2022-08-21T12:11:26;1.65;;;1.02;;
73938;SDS011;62291;47.554;8.504;2022-08-21T12:16:37;2.25;;;0.98;;
73938;SDS011;62291;47.554;8.504;2022-08-21T12:19:12;4.20;;;1.15;;
73938;SDS011;62291;47.554;8.504;2022-08-21T12:24:48;3.35;;;0.68;;
73938;SDS011;62291;47.554;8.504;2022-08-21T12:30:18;1.23;;;0.50;;
73938;SDS011;62291;47.554;8.504;2022-08-21T12:33:00;1.15;;;0.70;;
73938;SDS011;62291;47.554;8.504;2022-08-21T12:35:32;0.80;;;0.55;;
73938;SDS011;62291;47.554;8.504;2022-08-21T12:38:12;1.00;;;0.50;;
73938;SDS011;62291;47.554;8.504;2022-08-21T12:40:53;3.10;;;0.60;;
73938;SDS011;62291;47.554;8.504;2022-08-21T12:43:31;1.00;;;0.60;;
73938;SDS011;62291;47.554;8.504;2022-08-21T12:46:03;3.65;;;0.90;;
73938;SDS011;62291;47.554;8.504;2022-08-21T12:48:31;3.30;;;1.10;;
73938;SDS011;62291;47.554;8.504;2022-08-21T12:51:46;4.20;;;0.73;;
73938;SDS011;62291;47.554;8.504;2022-08-21T12:54:20;3.90;;;0.70;;
73938;SDS011;62291;47.554;8.504;2022-08-21T12:56:55;2.55;;;0.85;;
73938;SDS011;62291;47.554;8.504;2022-08-21T12:59:22;1.65;;;0.65;;
73938;SDS011;62291;47.554;8.504;2022-08-21T13:01:48;1.30;;;0.75;;
73938;SDS011;62291;47.554;8.504;2022-08-21T13:04:18;1.48;;;0.80;;
73938;SDS011;62291;47.554;8.504;2022-08-21T13:06:52;1.80;;;0.65;;
73938;SDS011;62291;47.554;8.504;2022-08-21T13:09:24;1.38;;;0.70;;
73938;SDS011;62291;47.554;8.504;2022-08-21T13:11:55;0.98;;;0.50;;
73938;SDS011;62291;47.554;8.504;2022-08-21T13:14:33;1.00;;;0.60;;
73938;SDS011;62291;47.554;8.504;2022-08-21T13:17:02;2.40;;;0.63;;
73938;SDS011;62291;47.554;8.504;2022-08-21T13:19:30;2.42;;;0.70;;
73938;SDS011;62291;47.554;8.504;2022-08-21T13:21:57;1.33;;;0.50;;
73938;SDS011;62291;47.554;8.504;2022-08-21T13:24:33;2.35;;;0.75;;
73938;SDS011;62291;47.554;8.504;2022-08-21T13:27:00;1.95;;;0.50;;
73938;SDS011;62291;47.554;8.504;2022-08-21T13:29:28;2.72;;;0.70;;
73938;SDS011;62291;47.554;8.504;2022-08-21T13:31:57;2.08;;;0.70;;
73938;SDS011;62291;47.554;8.504;2022-08-21T13:34:26;0.98;;;0.50;;
73938;SDS011;62291;47.554;8.504;2022-08-21T13:36:56;2.22;;;0.65;;
73938;SDS011;62291;47.554;8.504;2022-08-21T13:39:25;0.88;;;0.52;;
73938;SDS011;62291;47.554;8.504;2022-08-21T13:41:52;0.80;;;0.43;;
73938;SDS011;62291;47.554;8.504;2022-08-21T13:44:22;0.75;;;0.50;;
73938;SDS011;62291;47.554;8.504;2022-08-21T13:47:00;1.63;;;0.50;;
73938;SDS011;62291;47.554;8.504;2022-08-21T13:49:34;0.60;;;0.43;;
73938;SDS011;62291;47.554;8.504;2022-08-21T13:52:02;0.68;;;0.45;;
73938;SDS011;62291;47.554;8.504;2022-08-21T13:54:33;1.45;;;0.50;;
73938;SDS011;62291;47.554;8.504;2022-08-21T13:57:01;1.92;;;0.60;;
73938;SDS011;62291;47.554;8.504;2022-08-21T13:59:32;1.27;;;0.50;;
73938;SDS011;62291;47.554;8.504;2022-08-21T14:02:21;2.65;;;0.50;;
73938;SDS011;62291;47.554;8.504;2022-08-21T14:04:54;1.10;;;0.60;;
73938;SDS011;62291;47.554;8.504;2022-08-21T14:07:29;1.88;;;0.57;;
73938;SDS011;62291;47.554;8.504;2022-08-21T14:10:02;1.92;;;0.50;;
73938;SDS011;62291;47.554;8.504;2022-08-21T14:12:58;0.80;;;0.45;;
73938;SDS011;62291;47.554;8.504;2022-08-21T14:15:28;1.15;;;0.40;;
73938;SDS011;62291;47.554;8.504;2022-08-21T14:20:43;1.17;;;0.52;;
73938;SDS011;62291;47.554;8.504;2022-08-21T14:23:10;3.65;;;0.57;;
73938;SDS011;62291;47.554;8.504;2022-08-21T14:25:40;1.58;;;0.43;;
73938;SDS011;62291;47.554;8.504;2022-08-21T14:28:23;2.35;;;0.70;;
73938;SDS011;62291;47.554;8.504;2022-08-21T14:30:56;0.95;;;0.55;;
73938;SDS011;62291;47.554;8.504;2022-08-21T14:33:27;1.45;;;0.60;;
73938;SDS011;62291;47.554;8.504;2022-08-21T14:35:55;2.33;;;0.50;;
73938;SDS011;62291;47.554;8.504;2022-08-21T14:38:22;0.85;;;0.50;;
73938;SDS011;62291;47.554;8.504;2022-08-21T14:40:53;1.05;;;0.50;;
73938;SDS011;62291;47.554;8.504;2022-08-21T14:43:21;0.75;;;0.50;;
73938;SDS011;62291;47.554;8.504;2022-08-21T14:45:48;1.83;;;0.50;;
73938;SDS011;62291;47.554;8.504;2022-08-21T14:48:14;1.83;;;0.60;;
73938;SDS011;62291;47.554;8.504;2022-08-21T14:50:40;0.75;;;0.50;;
73938;SDS011;62291;47.554;8.504;2022-08-21T14:53:06;0.88;;;0.60;;
73938;SDS011;62291;47.554;8.504;2022-08-21T14:55:31;1.10;;;0.50;;
73938;SDS011;62291;47.554;8.504;2022-08-21T14:58:18;0.80;;;0.50;;
73938;SDS011;62291;47.554;8.504;2022-08-21T15:00:44;1.30;;;0.60;;
73938;SDS011;62291;47.554;8.504;2022-08-21T15:03:09;1.60;;;0.50;;
73938;SDS011;62291;47.554;8.504;2022-08-21T15:05:35;0.88;;;0.50;;
73938;SDS011;62291;47.554;8.504;2022-08-21T15:08:00;2.85;;;0.70;;
73938;SDS011;62291;47.554;8.504;2022-08-21T15:10:26;1.95;;;0.50;;
73938;SDS011;62291;47.554;8.504;2022-08-21T15:12:52;1.75;;;0.57;;
73938;SDS011;62291;47.554;8.504;2022-08-21T15:15:18;1.15;;;0.60;;
73938;SDS011;62291;47.554;8.504;2022-08-21T15:17:44;1.50;;;0.60;;
73938;SDS011;62291;47.554;8.504;2022-08-21T15:20:10;0.80;;;0.50;;
73938;SDS011;62291;47.554;8.504;2022-08-21T15:22:35;1.17;;;0.50;;
73938;SDS011;62291;47.554;8.504;2022-08-21T15:25:02;2.15;;;0.50;;
73938;SDS011;62291;47.554;8.504;2022-08-21T15:27:28;2.38;;;0.60;;
73938;SDS011;62291;47.554;8.504;2022-08-21T15:29:54;3.85;;;0.50;;
73938;SDS011;62291;47.554;8.504;2022-08-21T15:32:24;2.30;;;0.40;;
73938;SDS011;62291;47.554;8.504;2022-08-21T15:34:53;1.27;;;0.50;;
73938;SDS011;62291;47.554;8.504;2022-08-21T15:37:20;1.50;;;0.50;;
73938;SDS011;62291;47.554;8.504;2022-08-21T15:39:48;0.98;;;0.47;;
73938;SDS011;62291;47.554;8.504;2022-08-21T15:42:14;1.05;;;0.50;;
73938;SDS011;62291;47.554;8.504;2022-08-21T15:44:41;1.92;;;0.60;;
73938;SDS011;62291;47.554;8.504;2022-08-21T15:47:18;1.20;;;0.50;;
73938;SDS011;62291;47.554;8.504;2022-08-21T15:49:46;1.10;;;0.50;;
73938;SDS011;62291;47.554;8.504;2022-08-21T15:52:12;1.83;;;0.77;;
73938;SDS011;62291;47.554;8.504;2022-08-21T15:54:42;1.88;;;0.70;;
73938;SDS011;62291;47.554;8.504;2022-08-21T15:57:09;0.77;;;0.50;;
73938;SDS011;62291;47.554;8.504;2022-08-21T15:59:41;0.95;;;0.45;;
73938;SDS011;62291;47.554;8.504;2022-08-21T16:04:38;1.97;;;0.50;;
73938;SDS011;62291;47.554;8.504;2022-08-21T16:07:04;1.00;;;0.60;;
73938;SDS011;62291;47.554;8.504;2022-08-21T16:09:30;1.58;;;0.70;;
73938;SDS011;62291;47.554;8.504;2022-08-21T16:11:56;2.10;;;0.43;;
73938;SDS011;62291;47.554;8.504;2022-08-21T16:14:23;0.90;;;0.60;;
73938;SDS011;62291;47.554;8.504;2022-08-21T16:16:48;0.70;;;0.50;;
73938;SDS011;62291;47.554;8.504;2022-08-21T16:19:14;1.10;;;0.60;;